createdAt,value
2023-03-27T00:03:07.911Z,22.40
2023-03-27T00:08:09.413Z,22.40
2023-03-27T00:13:10.824Z,22.40
2023-03-27T00:18:12.318Z,22.40
2023-03-27T00:23:13.815Z,22.40
2023-03-27T00:28:15.230Z,22.30
2023-03-27T00:33:16.657Z,22.30
2023-03-27T00:38:18.081Z,22.30
2023-03-27T00:43:19.495Z,22.30
2023-03-27T00:48:20.893Z,22.30
2023-03-27T00:53:22.326Z,22.30
2023-03-27T00:58:23.833Z,22.30
2023-03-27T01:03:25.376Z,22.30
2023-03-27T01:08:26.835Z,22.30
2023-03-27T01:13:28.253Z,22.30
2023-03-27T01:18:29.658Z,22.30
2023-03-27T01:23:35.868Z,22.30
2023-03-27T01:28:52.445Z,22.30
2023-03-27T01:33:53.882Z,22.20
2023-03-27T01:38:55.313Z,22.20
2023-03-27T01:43:56.912Z,22.20
2023-03-27T01:48:58.311Z,22.20
2023-03-27T01:53:59.713Z,22.20
2023-03-27T01:59:01.135Z,22.20
2023-03-27T02:04:02.553Z,22.20
2023-03-27T02:09:03.968Z,22.20
2023-03-27T02:14:05.381Z,22.20
2023-03-27T02:19:06.786Z,22.20
2023-03-27T02:24:08.216Z,22.20
2023-03-27T02:29:09.630Z,22.20
2023-03-27T02:34:11.029Z,22.20
2023-03-27T02:39:12.424Z,22.20
2023-03-27T02:44:13.841Z,22.10
2023-03-27T02:49:15.248Z,22.10
2023-03-27T02:54:16.674Z,22.10
2023-03-27T02:59:18.073Z,22.10
2023-03-27T03:04:19.479Z,22.10
2023-03-27T03:09:20.906Z,22.10
2023-03-27T03:14:22.304Z,22.10
2023-03-27T03:19:23.721Z,22.10
2023-03-27T03:24:25.133Z,22.10
2023-03-27T03:29:26.545Z,22.10
2023-03-27T03:34:27.981Z,22.10
2023-03-27T03:39:29.397Z,22.10
2023-03-27T03:44:30.816Z,22.10
2023-03-27T03:49:32.217Z,22.00
2023-03-27T03:54:33.619Z,22.00
2023-03-27T03:59:35.019Z,22.00
2023-03-27T04:04:36.430Z,22.00
2023-03-27T04:09:37.976Z,22.00
2023-03-27T04:14:39.411Z,22.00
2023-03-27T04:19:40.825Z,22.00
2023-03-27T04:24:42.225Z,22.00
2023-03-27T04:29:43.777Z,22.00
2023-03-27T04:34:45.220Z,22.00
2023-03-27T04:39:46.631Z,22.00
2023-03-27T04:44:48.036Z,22.00
2023-03-27T04:49:49.459Z,22.00
2023-03-27T04:54:50.856Z,22.00
2023-03-27T04:59:52.270Z,22.00
2023-03-27T05:04:53.682Z,22.00
2023-03-27T05:09:55.079Z,22.00
2023-03-27T05:14:56.476Z,22.00
2023-03-27T05:19:57.885Z,21.90
2023-03-27T05:24:59.311Z,22.00
2023-03-27T05:30:00.724Z,21.90
2023-03-27T05:35:02.146Z,21.90
2023-03-27T05:40:03.628Z,21.90
2023-03-27T05:45:05.052Z,21.90
2023-03-27T05:50:06.462Z,21.90
2023-03-27T05:55:07.871Z,21.90
2023-03-27T06:00:09.302Z,21.90
2023-03-27T06:05:10.799Z,21.90
2023-03-27T06:10:13.791Z,21.90
2023-03-27T06:15:15.661Z,21.90
2023-03-27T06:20:17.077Z,21.90
2023-03-27T06:25:18.475Z,21.90
2023-03-27T06:30:19.882Z,21.90
2023-03-27T06:35:21.293Z,21.90
2023-03-27T06:40:23.117Z,21.90
2023-03-27T06:45:24.708Z,21.90
2023-03-27T06:50:26.762Z,21.80
2023-03-27T06:55:28.220Z,21.80
2023-03-27T07:00:29.649Z,21.80
2023-03-27T07:05:31.136Z,21.80
2023-03-27T07:10:32.574Z,21.80
2023-03-27T07:15:33.991Z,21.80
2023-03-27T07:20:35.402Z,21.80
2023-03-27T07:25:37.058Z,21.80
2023-03-27T07:30:38.485Z,21.80
2023-03-27T07:35:39.996Z,21.80
2023-03-27T07:40:41.513Z,21.80
2023-03-27T07:45:43.003Z,21.80
2023-03-27T07:50:44.414Z,21.80
2023-03-27T07:55:45.818Z,21.80
2023-03-27T08:00:47.235Z,21.80
2023-03-27T08:05:48.644Z,21.80
2023-03-27T08:10:50.050Z,21.80
2023-03-27T08:15:51.458Z,21.80
2023-03-27T08:20:52.872Z,21.80
2023-03-27T08:25:54.393Z,21.70
2023-03-27T08:30:55.937Z,21.70
2023-03-27T08:36:04.418Z,21.70
2023-03-27T08:41:05.904Z,21.70
2023-03-27T08:46:07.378Z,21.70
2023-03-27T08:51:08.801Z,21.70
2023-03-27T08:56:10.219Z,21.70
2023-03-27T09:01:11.628Z,21.70
2023-03-27T09:06:13.081Z,21.70
2023-03-27T09:11:14.485Z,21.70
2023-03-27T09:16:16.100Z,21.70
2023-03-27T09:21:17.507Z,21.70
2023-03-27T09:26:18.902Z,21.70
2023-03-27T09:31:20.348Z,21.70
2023-03-27T09:36:21.929Z,21.70
2023-03-27T09:41:23.360Z,21.70
2023-03-27T09:46:24.801Z,21.70
2023-03-27T09:51:26.251Z,21.70
2023-03-27T09:56:27.713Z,21.70
2023-03-27T10:01:29.256Z,21.70
2023-03-27T10:06:30.720Z,21.70
2023-03-27T10:11:32.136Z,21.70
2023-03-27T10:16:33.700Z,21.70
2023-03-27T10:21:35.216Z,21.70
2023-03-27T10:26:36.634Z,21.70
2023-03-27T10:31:38.266Z,21.70
2023-03-27T10:36:39.733Z,21.70
2023-03-27T10:41:41.623Z,21.70
2023-03-27T10:46:43.109Z,21.70
2023-03-27T10:51:46.878Z,21.70
2023-03-27T10:56:48.606Z,21.70
2023-03-27T11:01:52.418Z,21.70
2023-03-27T11:06:53.933Z,21.70
2023-03-27T11:11:55.413Z,21.70
2023-03-27T11:16:57.079Z,21.70
2023-03-27T11:21:58.668Z,21.70
2023-03-27T11:27:00.130Z,21.70
2023-03-27T11:32:01.612Z,21.70
2023-03-27T11:37:03.092Z,21.70
2023-03-27T11:42:04.486Z,21.60
2023-03-27T11:47:05.932Z,21.60
2023-03-27T11:52:07.347Z,21.60
2023-03-27T11:57:08.848Z,21.60
2023-03-27T12:02:10.345Z,21.60
2023-03-27T12:07:12.351Z,21.60
2023-03-27T12:12:13.839Z,21.60
2023-03-27T12:17:15.301Z,21.60
2023-03-27T12:22:23.444Z,21.60
2023-03-27T12:27:25.586Z,21.60
2023-03-27T12:32:27.174Z,21.60
2023-03-27T12:37:28.627Z,21.60
2023-03-27T12:42:30.056Z,21.60
2023-03-27T12:47:45.237Z,21.60
2023-03-27T12:52:46.675Z,21.70
2023-03-27T12:57:48.227Z,21.60
2023-03-27T13:02:49.790Z,21.60
2023-03-27T13:07:53.375Z,21.70
2023-03-27T13:12:56.125Z,21.60
2023-03-27T13:17:57.588Z,21.60
2023-03-27T13:22:59.024Z,21.60
2023-03-27T13:28:00.417Z,21.60
2023-03-27T13:33:01.858Z,21.60
2023-03-27T13:38:03.347Z,21.60
2023-03-27T13:43:04.770Z,21.60
2023-03-27T13:48:06.258Z,21.60
2023-03-27T13:53:07.703Z,21.60
2023-03-27T13:58:09.146Z,21.60
2023-03-27T14:03:10.646Z,21.60
2023-03-27T14:08:12.205Z,21.60
2023-03-27T14:13:13.623Z,21.60
2023-03-27T14:18:15.034Z,21.60
2023-03-27T14:23:16.456Z,21.60
2023-03-27T14:28:17.875Z,21.60
2023-03-27T14:33:19.463Z,21.60
2023-03-27T14:38:20.858Z,21.60
2023-03-27T14:43:22.280Z,21.60
2023-03-27T14:48:23.687Z,21.60
2023-03-27T14:53:25.096Z,21.60
2023-03-27T14:58:26.532Z,21.60
2023-03-27T15:03:27.985Z,21.60
2023-03-27T15:08:29.422Z,21.60
2023-03-27T15:13:30.832Z,21.60
2023-03-27T15:18:32.289Z,21.60
2023-03-27T15:23:33.715Z,21.60
2023-03-27T15:28:35.141Z,21.60
2023-03-27T15:33:36.534Z,21.60
2023-03-27T15:38:37.934Z,21.60
2023-03-27T15:43:39.329Z,21.60
2023-03-27T15:48:40.759Z,21.60
2023-03-27T15:53:42.192Z,21.60
2023-03-27T15:58:43.606Z,21.60
2023-03-27T16:03:45.089Z,21.60
2023-03-27T16:08:46.589Z,21.60
2023-03-27T16:13:47.991Z,21.60
2023-03-27T16:18:49.387Z,21.60
2023-03-27T16:23:50.798Z,21.60
2023-03-27T16:28:52.300Z,21.60
2023-03-27T16:33:53.700Z,21.60
2023-03-27T16:38:55.112Z,21.60
2023-03-27T16:43:56.525Z,21.60
2023-03-27T16:48:57.962Z,21.60
2023-03-27T16:53:59.373Z,21.60
2023-03-27T16:59:00.869Z,21.60
2023-03-27T17:04:02.273Z,21.60
2023-03-27T17:09:03.721Z,21.50
2023-03-27T17:14:05.150Z,21.50
2023-03-27T17:19:06.577Z,21.50
2023-03-27T17:24:07.987Z,21.50
2023-03-27T17:29:09.446Z,21.50
2023-03-27T17:34:11.085Z,21.50
2023-03-27T17:39:12.524Z,21.50
2023-03-27T17:44:13.990Z,21.50
2023-03-27T17:49:15.511Z,21.50
2023-03-27T17:54:16.961Z,21.50
2023-03-27T17:59:18.530Z,21.50
2023-03-27T18:04:19.966Z,21.50
2023-03-27T18:09:21.377Z,21.50
2023-03-27T18:14:22.786Z,21.50
2023-03-27T18:19:24.185Z,21.50
2023-03-27T18:24:25.600Z,21.50
2023-03-27T18:29:27.969Z,21.50
2023-03-27T18:34:29.377Z,21.50
2023-03-27T18:39:30.822Z,21.50
2023-03-27T18:44:32.355Z,21.50
2023-03-27T18:49:33.850Z,21.50
2023-03-27T18:54:35.261Z,21.50
2023-03-27T18:59:36.719Z,21.50
2023-03-27T19:04:38.146Z,21.50
2023-03-27T19:09:41.718Z,21.50
2023-03-27T19:14:43.323Z,21.50
2023-03-27T19:19:46.365Z,21.50
2023-03-27T19:24:48.053Z,21.50
2023-03-27T19:29:49.454Z,21.60
2023-03-27T19:34:50.876Z,21.70
2023-03-27T19:39:52.292Z,21.90
2023-03-27T19:44:53.741Z,22.30
2023-03-27T19:49:55.141Z,22.60
2023-03-27T19:54:56.549Z,23.00
2023-03-27T19:59:58.006Z,23.30
2023-03-27T20:04:59.494Z,23.60
2023-03-27T20:10:00.956Z,23.90
2023-03-27T20:20:08.778Z,24.30
2023-03-27T20:25:10.206Z,24.30
2023-03-27T20:30:11.635Z,24.50
2023-03-27T20:35:22.912Z,24.60
2023-03-27T20:40:25.471Z,24.60
2023-03-27T20:45:26.914Z,24.70
2023-03-27T20:50:28.341Z,24.80
2023-03-27T20:55:34.840Z,24.80
2023-03-27T21:00:38.923Z,24.80
2023-03-27T21:05:40.348Z,24.90
2023-03-27T21:10:41.752Z,24.90
2023-03-27T21:15:43.212Z,24.90
2023-03-27T21:20:44.619Z,25.00
2023-03-27T21:25:46.024Z,25.00
2023-03-27T21:30:48.450Z,25.10
2023-03-27T21:35:50.434Z,25.10
2023-03-27T21:40:51.924Z,25.10
2023-03-27T21:45:53.386Z,25.10
2023-03-27T21:50:55.054Z,25.20
2023-03-27T21:55:56.598Z,25.20
2023-03-27T22:00:58.246Z,25.20
2023-03-27T22:06:10.724Z,25.20
2023-03-27T22:11:12.891Z,25.20
2023-03-27T22:16:14.573Z,25.20
2023-03-27T22:21:16.054Z,25.20
2023-03-27T22:26:17.508Z,25.20
2023-03-27T22:31:18.928Z,25.30
2023-03-27T22:36:21.608Z,25.30
2023-03-27T22:41:22.999Z,25.30
2023-03-27T22:46:24.439Z,25.30
2023-03-27T22:51:25.873Z,25.30
2023-03-27T22:56:27.297Z,25.30
2023-03-27T23:01:28.825Z,25.40
2023-03-27T23:06:30.256Z,25.40
2023-03-27T23:11:31.670Z,25.40
2023-03-27T23:16:33.214Z,25.40
2023-03-27T23:21:34.698Z,25.40
2023-03-27T23:26:36.154Z,25.40
2023-03-27T23:31:37.595Z,25.40
2023-03-27T23:36:39.016Z,25.40
2023-03-27T23:41:40.450Z,25.40
2023-03-27T23:46:41.878Z,25.40
2023-03-27T23:51:43.281Z,25.40
2023-03-27T23:56:44.728Z,25.40
